Have a Safe July 4th! 

Flight Track Log - Related Links

Times and Time Zones

All times are in EDT time to prevent confusion due to time zone crossing. See the EJM826 flight status page for this flight to view local times or setup timezone preferences in your user account.

Time Position Orientation Groundspeed Altitude Reporting Facility
EDT Latitude Longitude Course Direction KTS MPH feet Rate Location/Type
Fri 04:42:00 PM 32.7519 -117.2269 296° West 168 193 1,800  Level Los Angeles Center
Fri 04:43:03 PM 32.7819 -117.2769 306° West 180 207 4,000 1,968 Climbing Los Angeles Center
Fri 04:44:05 PM 32.8161 -117.3317 307° West 209 241 5,900 2,032 Climbing Los Angeles Center
Fri 04:45:07 PM 32.8758 -117.4147 311° West 267 307 8,200 2,274 Climbing Los Angeles Center
Fri 04:46:09 PM 32.9278 -117.4861 311° West 281 323 10,600 2,032 Climbing Los Angeles Center
Fri 04:47:00 PM 33.2046 -117.9282 296° West  Level FlightAware Approximate
Fri 04:47:11 PM 32.9828 -117.5614 311° West 296 341 12,400  Level Los Angeles Center
Fri 04:48:13 PM 33.0408 -117.6403 311° West 312 359 14,500 1,935 Climbing Los Angeles Center
Fri 04:49:15 PM 33.0992 -117.7214 311° West 320 368 16,400 1,676 Climbing Los Angeles Center
Fri 04:50:29 PM 33.1725 -117.8228 311° West 332 382 18,300 1,664 Climbing Los Angeles Center
Fri 04:51:32 PM 33.2181 -117.9503 293° West 346 398 20,200 1,584 Climbing Los Angeles Center
Fri 04:52:34 PM 33.2989 -118.0133 327° Northwest 357 411 21,600 919 Climbing Los Angeles Center
Fri 04:53:36 PM 33.3967 -118.0619 337° Northwest 375 432 22,100 774 Climbing Los Angeles Center
Fri 04:54:38 PM 33.4983 -118.1106 338° Northwest 389 448 23,200 968 Climbing Los Angeles Center
Fri 04:55:40 PM 33.6022 -118.1603 338° Northwest 400 460 24,100 968 Climbing Los Angeles Center
Fri 04:56:42 PM 33.7281 -118.2192 339° North 410 472 25,200 968 Climbing Los Angeles Center
Fri 04:57:44 PM 33.8347 -118.2706 338° Northwest 428 493 26,100 768 Climbing Los Angeles Center
Fri 04:58:47 PM 33.9419 -118.3253 337° Northwest 427 491 26,800 864 Climbing Los Angeles Center
Fri 04:59:49 PM 34.0742 -118.3897 338° Northwest 430 495 27,900 919 Climbing Los Angeles Center
Fri 05:00:51 PM 34.1864 -118.4453 338° Northwest 435 501 28,700 677 Climbing Los Angeles Center
Fri 05:01:53 PM 34.3022 -118.4875 343° North 436 502 29,300 484 Climbing Los Angeles Center
Fri 05:02:55 PM 34.4217 -118.5236 346° North 440 506 29,700 339 Climbing Los Angeles Center
Fri 05:03:57 PM 34.5419 -118.5611 346° North 446 513 30,000 145 Climbing Los Angeles Center
Fri 05:04:59 PM 34.6653 -118.6000 345° North 455 524 30,000  Level Los Angeles Center
Fri 05:06:01 PM 34.7911 -118.6389 346° North 466 536 30,000  Level Los Angeles Center
Fri 05:07:03 PM 34.9386 -118.6861 345° North 472 543 30,000  Level Los Angeles Center
Fri 05:08:06 PM 35.0661 -118.7253 346° North 475 547 30,000 144 Level Los Angeles Center
Fri 05:09:08 PM 35.1953 -118.7636 346° North 477 549 30,300 726 Climbing Los Angeles Center
Fri 05:10:10 PM 35.3464 -118.8114 346° North 473 544 31,500 823 Climbing Los Angeles Center
Fri 05:11:12 PM 35.4700 -118.8511 345° North 466 536 32,000 242 Climbing Los Angeles Center
Fri 05:12:14 PM 35.5961 -118.8914 345° North 465 535 32,000  Level Los Angeles Center
Fri 05:13:16 PM 35.7269 -118.9350 345° North 476 548 32,000  Level Los Angeles Center
Fri 05:14:18 PM 35.8586 -118.9761 346° North 485 558 32,000  Level Los Angeles Center
Fri 05:15:20 PM 36.0147 -119.0261 345° North 485 558 32,000  Level Los Angeles Center
Fri 05:16:22 PM 36.1456 -119.0694 345° North 487 560 32,000  Level Los Angeles Center
Fri 05:17:24 PM 36.2517 -119.1047 345° North 490 564 32,000  Level Los Angeles Center
Fri 05:18:27 PM 36.4108 -119.1581 345° North 494 568 32,000  Level Los Angeles Center
Fri 05:19:29 PM 36.5433 -119.2000 346° North 494 568 32,000  Level Los Angeles Center
Fri 05:20:30 PM 36.6739 -119.2417 346° North 495 570 32,000  Level Oakland Center
Fri 05:21:32 PM 36.8333 -119.2928 346° North 494 568 32,000  Level Oakland Center
Fri 05:22:33 PM 36.9675 -119.3358 346° North 497 572 32,000  Level Oakland Center
Fri 05:23:35 PM 37.1028 -119.3817 345° North 503 579 32,000  Level Oakland Center
Fri 05:24:36 PM 37.2381 -119.4258 345° North 503 579 32,000  Level Oakland Center
Fri 05:25:38 PM 37.3886 -119.4753 345° North 504 580 32,000  Level Oakland Center
Fri 05:26:40 PM 37.5244 -119.5208 345° North 505 581 32,000  Level Oakland Center
Fri 05:27:41 PM 37.6606 -119.5664 345° North 506 582 32,000 -634 Level Oakland Center
Fri 05:28:43 PM 37.7936 -119.6114 345° North 499 574 30,700 -1,561 Descending Oakland Center
Fri 05:29:44 PM 37.9244 -119.6569 345° North 493 567 28,800 -1,854 Descending Oakland Center
Fri 05:30:46 PM 38.0547 -119.6989 346° North 486 559 26,900 -1,887 Descending Oakland Center
Fri 05:31:48 PM 38.1758 -119.7431 344° North 465 535 24,900 -2,098 Descending Oakland Center
Fri 05:32:49 PM 38.3211 -119.7928 345° North 453 521 22,600 -2,732 Descending Oakland Center
Fri 05:33:51 PM 38.4458 -119.8333 346° North 461 531 19,300 -3,122 Descending Oakland Center
Fri 05:34:52 PM 38.5711 -119.8758 345° North 466 536 16,200 -2,585 Descending Oakland Center
Fri 05:35:54 PM 38.6853 -119.9161 345° North 444 511 14,000 -1,645 Descending Oakland Center
Fri 05:36:56 PM 38.7914 -119.9536 345° North 408 470 12,800 -585 Descending Oakland Center
Fri 05:37:57 PM 38.8950 -119.9925 344° North 398 458 12,800  Level Oakland Center
Fri 05:38:59 PM 38.9897 -120.0289 343° North 372 428 12,800 -244 Level Oakland Center
Fri 05:40:00 PM 39.1006 -120.0819 340° North 357 411 12,300 -488 Descending Oakland Center
Fri 05:41:02 PM 39.1894 -120.1217 341° North 343 395 11,800 -484 Descending Oakland Center

Login

Don't have an account? Register now (free) for customized features, flight alerts, and more!